sensor_id;sensor_type;location;lat;lon;timestamp;pressure;altitude;pressure_sealevel;temperature;humidity
61337;BME280;47212;41.326;2.104;2023-11-21T00:04:41;101327.31;;;16.23;81.25
61337;BME280;47212;41.326;2.104;2023-11-21T00:10:01;101319.63;;;16.25;81.19
61337;BME280;47212;41.326;2.104;2023-11-21T00:15:44;101303.97;;;16.26;82.11
61337;BME280;47212;41.326;2.104;2023-11-21T00:21:26;101308.34;;;16.27;82.22
61337;BME280;47212;41.326;2.104;2023-11-21T00:26:33;101300.16;;;16.22;81.72
61337;BME280;47212;41.326;2.104;2023-11-21T00:31:41;101286.41;;;16.22;82.06
61337;BME280;47212;41.326;2.104;2023-11-21T00:36:44;101288.59;;;16.25;81.90
61337;BME280;47212;41.326;2.104;2023-11-21T00:41:53;101280.91;;;16.22;82.11
61337;BME280;47212;41.326;2.104;2023-11-21T00:47:07;101271.63;;;16.18;82.27
61337;BME280;47212;41.326;2.104;2023-11-21T00:52:11;101269.94;;;16.22;82.56
61337;BME280;47212;41.326;2.104;2023-11-21T00:57:14;101259.75;;;16.22;82.68
61337;BME280;47212;41.326;2.104;2023-11-21T01:02:16;101261.16;;;16.20;83.85
61337;BME280;47212;41.326;2.104;2023-11-21T01:07:21;101263.38;;;16.18;84.13
61337;BME280;47212;41.326;2.104;2023-11-21T01:12:47;101252.91;;;16.20;84.86
61337;BME280;47212;41.326;2.104;2023-11-21T01:18:05;101239.75;;;16.17;84.41
61337;BME280;47212;41.326;2.104;2023-11-21T01:23:07;101232.63;;;16.16;85.12
61337;BME280;47212;41.326;2.104;2023-11-21T01:28:09;101238.13;;;16.16;85.20
61337;BME280;47212;41.326;2.104;2023-11-21T01:33:12;101223.03;;;16.13;85.75
61337;BME280;47212;41.326;2.104;2023-11-21T01:38:14;101230.47;;;16.13;86.06
61337;BME280;47212;41.326;2.104;2023-11-21T01:43:17;101216.78;;;16.08;86.94
61337;BME280;47212;41.326;2.104;2023-11-21T01:50:15;101227.75;;;16.08;88.37
61337;BME280;47212;41.326;2.104;2023-11-21T01:57:13;101223.91;;;16.09;89.35
61337;BME280;47212;41.326;2.104;2023-11-21T02:02:19;101224.44;;;16.11;89.82
61337;BME280;47212;41.326;2.104;2023-11-21T02:07:21;101211.53;;;16.11;90.10
61337;BME280;47212;41.326;2.104;2023-11-21T02:12:25;101210.41;;;16.12;90.47
61337;BME280;47212;41.326;2.104;2023-11-21T02:22:12;101191.47;;;16.11;90.91
61337;BME280;47212;41.326;2.104;2023-11-21T02:27:18;101178.03;;;16.09;90.89
61337;BME280;47212;41.326;2.104;2023-11-21T02:32:24;101163.47;;;16.09;91.30
61337;BME280;47212;41.326;2.104;2023-11-21T02:37:28;101149.50;;;16.05;91.11
61337;BME280;47212;41.326;2.104;2023-11-21T02:42:30;101148.16;;;16.03;91.13
61337;BME280;47212;41.326;2.104;2023-11-21T02:47:32;101155.28;;;16.04;94.09
61337;BME280;47212;41.326;2.104;2023-11-21T02:52:34;101148.44;;;16.01;94.45
61337;BME280;47212;41.326;2.104;2023-11-21T02:57:37;101134.19;;;15.99;92.05
61337;BME280;47212;41.326;2.104;2023-11-21T03:02:41;101143.25;;;16.00;92.06
61337;BME280;47212;41.326;2.104;2023-11-21T03:07:44;101134.44;;;16.03;92.21
61337;BME280;47212;41.326;2.104;2023-11-21T03:12:46;101132.22;;;16.05;92.42
61337;BME280;47212;41.326;2.104;2023-11-21T03:17:47;101126.72;;;16.05;94.74
61337;BME280;47212;41.326;2.104;2023-11-21T03:22:51;101116.84;;;16.04;92.00
61337;BME280;47212;41.326;2.104;2023-11-21T03:27:54;101119.34;;;16.00;91.09
61337;BME280;47212;41.326;2.104;2023-11-21T03:32:57;101115.84;;;15.95;90.16
61337;BME280;47212;41.326;2.104;2023-11-21T03:37:59;101115.06;;;15.89;89.43
61337;BME280;47212;41.326;2.104;2023-11-21T03:43:04;101116.75;;;15.85;88.82
61337;BME280;47212;41.326;2.104;2023-11-21T03:48:06;101120.38;;;15.80;87.61
61337;BME280;47212;41.326;2.104;2023-11-21T03:53:12;101119.31;;;15.76;84.75
61337;BME280;47212;41.326;2.104;2023-11-21T03:58:14;101108.91;;;15.73;80.67
61337;BME280;47212;41.326;2.104;2023-11-21T04:03:16;101110.81;;;15.73;77.54
61337;BME280;47212;41.326;2.104;2023-11-21T04:08:19;101109.47;;;15.70;75.13
61337;BME280;47212;41.326;2.104;2023-11-21T04:13:21;101125.66;;;15.72;73.47
61337;BME280;47212;41.326;2.104;2023-11-21T04:18:23;101122.09;;;15.71;70.59
61337;BME280;47212;41.326;2.104;2023-11-21T04:23:27;101121.84;;;15.68;68.13
61337;BME280;47212;41.326;2.104;2023-11-21T04:28:29;101124.31;;;15.69;67.74
61337;BME280;47212;41.326;2.104;2023-11-21T04:33:31;101130.91;;;15.68;66.29
61337;BME280;47212;41.326;2.104;2023-11-21T04:38:33;101135.03;;;15.66;66.15
61337;BME280;47212;41.326;2.104;2023-11-21T04:43:36;101121.59;;;15.64;64.96
61337;BME280;47212;41.326;2.104;2023-11-21T04:48:38;101112.03;;;15.62;63.95
61337;BME280;47212;41.326;2.104;2023-11-21T04:53:40;101110.66;;;15.54;63.03
61337;BME280;47212;41.326;2.104;2023-11-21T04:58:42;101114.53;;;15.48;62.73
61337;BME280;47212;41.326;2.104;2023-11-21T05:04:10;101133.25;;;15.41;58.88
61337;BME280;47212;41.326;2.104;2023-11-21T05:09:18;101144.78;;;15.38;61.08
61337;BME280;47212;41.326;2.104;2023-11-21T05:14:25;101139.88;;;15.35;62.00
61337;BME280;47212;41.326;2.104;2023-11-21T05:19:35;101135.50;;;15.34;62.11
61337;BME280;47212;41.326;2.104;2023-11-21T05:24:39;101160.19;;;15.34;61.87
61337;BME280;47212;41.326;2.104;2023-11-21T05:29:47;101171.69;;;15.36;61.36
61337;BME280;47212;41.326;2.104;2023-11-21T05:34:56;101185.94;;;15.38;61.01
61337;BME280;47212;41.326;2.104;2023-11-21T05:40:08;101171.13;;;15.39;60.89
61337;BME280;47212;41.326;2.104;2023-11-21T05:45:17;101191.38;;;15.43;60.77
61337;BME280;47212;41.326;2.104;2023-11-21T05:50:23;101184.78;;;15.44;61.23
61337;BME280;47212;41.326;2.104;2023-11-21T05:55:28;101205.63;;;15.45;61.33
61337;BME280;47212;41.326;2.104;2023-11-21T06:00:32;101207.84;;;15.43;60.49
61337;BME280;47212;41.326;2.104;2023-11-21T06:05:52;101210.88;;;15.41;59.29
61337;BME280;47212;41.326;2.104;2023-11-21T06:11:17;101212.78;;;15.41;59.64
61337;BME280;47212;41.326;2.104;2023-11-21T06:16:21;101223.75;;;15.41;59.01
61337;BME280;47212;41.326;2.104;2023-11-21T06:21:31;101235.03;;;15.39;58.78
61337;BME280;47212;41.326;2.104;2023-11-21T06:26:42;101258.88;;;15.39;59.45
61337;BME280;47212;41.326;2.104;2023-11-21T06:32:10;101276.44;;;15.43;65.31
61337;BME280;47212;41.326;2.104;2023-11-21T06:37:23;101292.59;;;15.44;70.42
61337;BME280;47212;41.326;2.104;2023-11-21T06:42:28;101291.78;;;15.44;73.07
61337;BME280;47212;41.326;2.104;2023-11-21T06:47:38;101305.53;;;15.39;76.58
61337;BME280;47212;41.326;2.104;2023-11-21T06:52:44;101301.44;;;15.31;76.84
61337;BME280;47212;41.326;2.104;2023-11-21T06:57:49;101286.16;;;15.15;79.26
61337;BME280;47212;41.326;2.104;2023-11-21T07:02:55;101298.53;;;14.97;79.95
61337;BME280;47212;41.326;2.104;2023-11-21T07:07:58;101296.38;;;14.84;79.78
61337;BME280;47212;41.326;2.104;2023-11-21T07:13:11;101319.97;;;14.75;81.59
61337;BME280;47212;41.326;2.104;2023-11-21T07:18:16;101317.22;;;14.75;82.57
61337;BME280;47212;41.326;2.104;2023-11-21T07:23:24;101301.84;;;14.74;81.88
61337;BME280;47212;41.326;2.104;2023-11-21T07:28:36;101327.88;;;14.71;82.38
61337;BME280;47212;41.326;2.104;2023-11-21T07:33:49;101345.16;;;14.72;82.09
61337;BME280;47212;41.326;2.104;2023-11-21T07:38:51;101339.69;;;14.77;81.59
61337;BME280;47212;41.326;2.104;2023-11-21T07:43:55;101340.50;;;14.82;81.09
61337;BME280;47212;41.326;2.104;2023-11-21T07:49:08;101347.91;;;14.87;80.97
61337;BME280;47212;41.326;2.104;2023-11-21T07:54:12;101353.91;;;14.94;80.37
61337;BME280;47212;41.326;2.104;2023-11-21T07:59:17;101360.47;;;15.08;80.38
61337;BME280;47212;41.326;2.104;2023-11-21T08:04:25;101352.78;;;15.15;79.54
61337;BME280;47212;41.326;2.104;2023-11-21T08:09:30;101373.34;;;15.18;79.43
61337;BME280;47212;41.326;2.104;2023-11-21T08:14:37;101376.59;;;15.25;79.35
61337;BME280;47212;41.326;2.104;2023-11-21T08:19:50;101375.47;;;15.41;79.06
61337;BME280;47212;41.326;2.104;2023-11-21T08:24:57;101368.59;;;15.64;78.10
61337;BME280;47212;41.326;2.104;2023-11-21T08:30:08;101366.84;;;15.83;77.39
61337;BME280;47212;41.326;2.104;2023-11-21T08:35:15;101368.53;;;16.63;75.58
61337;BME280;47212;41.326;2.104;2023-11-21T08:40:20;101362.13;;;17.30;71.43
61337;BME280;47212;41.326;2.104;2023-11-21T08:45:27;101368.31;;;17.17;71.72
61337;BME280;47212;41.326;2.104;2023-11-21T08:50:35;101371.78;;;17.04;72.04
61337;BME280;47212;41.326;2.104;2023-11-21T08:55:44;101359.28;;;16.87;72.21
61337;BME280;47212;41.326;2.104;2023-11-21T09:01:01;101371.09;;;16.88;72.10
61337;BME280;47212;41.326;2.104;2023-11-21T09:06:19;101371.88;;;16.94;72.39
61337;BME280;47212;41.326;2.104;2023-11-21T09:11:32;101385.13;;;16.86;72.78
61337;BME280;47212;41.326;2.104;2023-11-21T09:16:37;101389.94;;;16.71;73.10
61337;BME280;47212;41.326;2.104;2023-11-21T09:21:44;101385.94;;;16.53;73.51
61337;BME280;47212;41.326;2.104;2023-11-21T09:27:00;101375.56;;;16.40;73.83
61337;BME280;47212;41.326;2.104;2023-11-21T09:32:07;101380.59;;;16.28;74.14
61337;BME280;47212;41.326;2.104;2023-11-21T09:37:16;101378.97;;;16.21;74.27
61337;BME280;47212;41.326;2.104;2023-11-21T09:42:36;101374.06;;;16.18;74.53
61337;BME280;47212;41.326;2.104;2023-11-21T09:47:49;101377.03;;;16.27;74.06
61337;BME280;47212;41.326;2.104;2023-11-21T09:53:21;101363.56;;;16.70;72.70
61337;BME280;47212;41.326;2.104;2023-11-21T09:58:30;101353.91;;;17.01;71.08
61337;BME280;47212;41.326;2.104;2023-11-21T10:03:37;101348.97;;;17.51;68.67
61337;BME280;47212;41.326;2.104;2023-11-21T10:08:42;101345.81;;;18.24;65.94
61337;BME280;47212;41.326;2.104;2023-11-21T10:13:59;101343.53;;;18.96;62.17
61337;BME280;47212;41.326;2.104;2023-11-21T10:19:10;101345.44;;;19.42;60.79
61337;BME280;47212;41.326;2.104;2023-11-21T10:24:14;101341.53;;;19.84;58.22
61337;BME280;47212;41.326;2.104;2023-11-21T10:29:29;101343.69;;;20.23;55.51
61337;BME280;47212;41.326;2.104;2023-11-21T10:34:55;101327.25;;;20.63;55.67
61337;BME280;47212;41.326;2.104;2023-11-21T10:40:01;101333.97;;;20.93;55.28
61337;BME280;47212;41.326;2.104;2023-11-21T10:45:08;101328.03;;;20.55;54.13
61337;BME280;47212;41.326;2.104;2023-11-21T10:50:20;101324.03;;;20.70;55.42
61337;BME280;47212;41.326;2.104;2023-11-21T10:55:25;101318.72;;;21.04;54.17
61337;BME280;47212;41.326;2.104;2023-11-21T11:00:38;101314.94;;;21.31;51.82
61337;BME280;47212;41.326;2.104;2023-11-21T11:05:55;101313.72;;;21.54;49.07
61337;BME280;47212;41.326;2.104;2023-11-21T11:11:02;101310.63;;;21.65;47.43
61337;BME280;47212;41.326;2.104;2023-11-21T11:16:14;101296.34;;;21.71;45.46
61337;BME280;47212;41.326;2.104;2023-11-21T11:21:30;101289.50;;;21.77;46.94
61337;BME280;47212;41.326;2.104;2023-11-21T11:37:52;101265.22;;;21.83;44.52
61337;BME280;47212;41.326;2.104;2023-11-21T11:42:58;101250.53;;;21.82;43.96
61337;BME280;47212;41.326;2.104;2023-11-21T11:48:12;101247.94;;;21.86;41.70
61337;BME280;47212;41.326;2.104;2023-11-21T11:53:23;101245.31;;;21.98;42.52
61337;BME280;47212;41.326;2.104;2023-11-21T11:58:37;101242.06;;;22.13;40.89
61337;BME280;47212;41.326;2.104;2023-11-21T12:09:34;101224.25;;;22.32;42.35
61337;BME280;47212;41.326;2.104;2023-11-21T12:14:42;101202.41;;;22.30;41.63
61337;BME280;47212;41.326;2.104;2023-11-21T12:19:48;101204.50;;;22.33;41.48
61337;BME280;47212;41.326;2.104;2023-11-21T12:25:01;101187.03;;;22.41;41.63
61337;BME280;47212;41.326;2.104;2023-11-21T12:30:06;101196.97;;;22.42;42.59
61337;BME280;47212;41.326;2.104;2023-11-21T12:35:21;101194.84;;;22.48;41.55
61337;BME280;47212;41.326;2.104;2023-11-21T12:40:29;101192.53;;;22.50;43.19
61337;BME280;47212;41.326;2.104;2023-11-21T12:45:39;101188.31;;;22.44;41.86
61337;BME280;47212;41.326;2.104;2023-11-21T12:50:47;101177.97;;;22.15;43.85
61337;BME280;47212;41.326;2.104;2023-11-21T12:56:00;101175.22;;;21.80;43.30
61337;BME280;47212;41.326;2.104;2023-11-21T13:01:06;101162.66;;;21.66;42.69
61337;BME280;47212;41.326;2.104;2023-11-21T13:06:19;101165.75;;;21.64;42.24
61337;BME280;47212;41.326;2.104;2023-11-21T13:11:34;101172.75;;;21.27;42.94
61337;BME280;47212;41.326;2.104;2023-11-21T13:16:41;101156.78;;;21.33;44.13
61337;BME280;47212;41.326;2.104;2023-11-21T13:21:56;101148.97;;;21.35;41.77
61337;BME280;47212;41.326;2.104;2023-11-21T13:27:06;101148.28;;;21.20;43.09
61337;BME280;47212;41.326;2.104;2023-11-21T13:32:14;101151.31;;;20.93;42.95
61337;BME280;47212;41.326;2.104;2023-11-21T13:37:21;101144.56;;;20.68;43.02
61337;BME280;47212;41.326;2.104;2023-11-21T13:42:29;101147.53;;;20.41;43.83
61337;BME280;47212;41.326;2.104;2023-11-21T13:47:45;101136.41;;;20.32;43.29
61337;BME280;47212;41.326;2.104;2023-11-21T13:52:50;101127.22;;;20.14;43.58
61337;BME280;47212;41.326;2.104;2023-11-21T13:57:59;101117.94;;;20.10;43.98
61337;BME280;47212;41.326;2.104;2023-11-21T14:03:17;101118.94;;;19.92;44.10
61337;BME280;47212;41.326;2.104;2023-11-21T14:08:24;101110.78;;;19.87;43.94
61337;BME280;47212;41.326;2.104;2023-11-21T14:13:32;101102.00;;;19.85;42.87
61337;BME280;47212;41.326;2.104;2023-11-21T14:18:39;101101.94;;;19.76;44.26
61337;BME280;47212;41.326;2.104;2023-11-21T14:24:02;101081.53;;;19.86;44.61
61337;BME280;47212;41.326;2.104;2023-11-21T14:29:13;101085.41;;;19.85;44.84
61337;BME280;47212;41.326;2.104;2023-11-21T14:34:25;101078.41;;;19.79;45.39
61337;BME280;47212;41.326;2.104;2023-11-21T14:39:34;101082.75;;;19.71;44.97
61337;BME280;47212;41.326;2.104;2023-11-21T14:45:01;101097.50;;;19.66;44.75
61337;BME280;47212;41.326;2.104;2023-11-21T14:50:20;101100.44;;;19.70;44.24
61337;BME280;47212;41.326;2.104;2023-11-21T14:55:47;101091.34;;;19.69;44.82
61337;BME280;47212;41.326;2.104;2023-11-21T15:01:08;101084.69;;;19.70;45.39
61337;BME280;47212;41.326;2.104;2023-11-21T15:06:15;101081.94;;;19.70;45.47
61337;BME280;47212;41.326;2.104;2023-11-21T15:11:38;101086.91;;;19.60;46.53
61337;BME280;47212;41.326;2.104;2023-11-21T15:16:46;101078.53;;;19.51;46.83
61337;BME280;47212;41.326;2.104;2023-11-21T15:22:03;101081.66;;;19.36;46.47
61337;BME280;47212;41.326;2.104;2023-11-21T15:27:15;101080.28;;;19.25;47.00
61337;BME280;47212;41.326;2.104;2023-11-21T15:32:24;101070.50;;;19.05;47.23
61337;BME280;47212;41.326;2.104;2023-11-21T15:37:33;101076.03;;;18.91;47.81
61337;BME280;47212;41.326;2.104;2023-11-21T15:42:38;101062.19;;;18.69;49.16
61337;BME280;47212;41.326;2.104;2023-11-21T15:47:47;101061.28;;;18.46;50.15
61337;BME280;47212;41.326;2.104;2023-11-21T15:52:55;101068.53;;;18.28;50.87
61337;BME280;47212;41.326;2.104;2023-11-21T15:58:11;101069.09;;;18.11;51.56
61337;BME280;47212;41.326;2.104;2023-11-21T16:03:17;101074.00;;;18.01;52.82
61337;BME280;47212;41.326;2.104;2023-11-21T16:08:24;101058.16;;;17.93;54.24
61337;BME280;47212;41.326;2.104;2023-11-21T16:13:30;101068.25;;;17.83;54.97
61337;BME280;47212;41.326;2.104;2023-11-21T16:18:38;101060.19;;;17.73;55.33
61337;BME280;47212;41.326;2.104;2023-11-21T16:23:45;101044.94;;;17.62;55.66
61337;BME280;47212;41.326;2.104;2023-11-21T16:28:54;101064.88;;;17.54;55.66
61337;BME280;47212;41.326;2.104;2023-11-21T16:33:59;101059.25;;;17.45;55.80
61337;BME280;47212;41.326;2.104;2023-11-21T16:39:15;101056.88;;;17.39;56.05
61337;BME280;47212;41.326;2.104;2023-11-21T16:44:38;101061.94;;;17.32;56.25
61337;BME280;47212;41.326;2.104;2023-11-21T16:49:45;101052.13;;;17.26;56.41
61337;BME280;47212;41.326;2.104;2023-11-21T16:54:49;101046.41;;;17.22;56.96
61337;BME280;47212;41.326;2.104;2023-11-21T16:59:56;101054.72;;;17.17;57.42
61337;BME280;47212;41.326;2.104;2023-11-21T17:04:59;101063.66;;;17.09;58.38
61337;BME280;47212;41.326;2.104;2023-11-21T17:10:07;101057.03;;;16.91;58.81
61337;BME280;47212;41.326;2.104;2023-11-21T17:15:15;101072.19;;;16.70;60.36
61337;BME280;47212;41.326;2.104;2023-11-21T17:20:19;101067.03;;;16.63;60.87
61337;BME280;47212;41.326;2.104;2023-11-21T17:25:31;101063.97;;;16.65;61.52
61337;BME280;47212;41.326;2.104;2023-11-21T17:30:43;101074.97;;;16.65;61.85
61337;BME280;47212;41.326;2.104;2023-11-21T17:35:57;101081.59;;;16.64;62.32
61337;BME280;47212;41.326;2.104;2023-11-21T17:41:02;101087.16;;;16.59;62.32
61337;BME280;47212;41.326;2.104;2023-11-21T17:46:06;101087.72;;;16.55;62.87
61337;BME280;47212;41.326;2.104;2023-11-21T17:51:15;101084.47;;;16.53;63.01
61337;BME280;47212;41.326;2.104;2023-11-21T17:56:22;101087.28;;;16.48;63.06
61337;BME280;47212;41.326;2.104;2023-11-21T18:01:28;101098.81;;;16.45;63.73
61337;BME280;47212;41.326;2.104;2023-11-21T18:06:42;101107.13;;;16.40;64.21
61337;BME280;47212;41.326;2.104;2023-11-21T18:11:51;101104.38;;;16.40;64.92
61337;BME280;47212;41.326;2.104;2023-11-21T18:16:56;101102.75;;;16.39;65.39
61337;BME280;47212;41.326;2.104;2023-11-21T18:22:11;101096.72;;;16.37;65.89
61337;BME280;47212;41.326;2.104;2023-11-21T18:27:15;101105.00;;;16.32;65.90
61337;BME280;47212;41.326;2.104;2023-11-21T18:32:28;101111.91;;;16.30;66.44
61337;BME280;47212;41.326;2.104;2023-11-21T18:37:43;101112.50;;;16.27;66.21
61337;BME280;47212;41.326;2.104;2023-11-21T18:42:49;101113.91;;;16.24;66.10
61337;BME280;47212;41.326;2.104;2023-11-21T18:48:08;101119.72;;;16.17;66.53
61337;BME280;47212;41.326;2.104;2023-11-21T18:53:21;101129.38;;;16.15;65.94
61337;BME280;47212;41.326;2.104;2023-11-21T18:58:46;101112.38;;;16.13;64.91
61337;BME280;47212;41.326;2.104;2023-11-21T19:04:00;101117.63;;;16.09;64.51
61337;BME280;47212;41.326;2.104;2023-11-21T19:09:14;101117.38;;;16.06;64.03
61337;BME280;47212;41.326;2.104;2023-11-21T19:14:18;101130.06;;;16.02;63.23
61337;BME280;47212;41.326;2.104;2023-11-21T19:19:22;101136.13;;;15.99;61.95
61337;BME280;47212;41.326;2.104;2023-11-21T19:24:37;101125.44;;;15.97;60.67
61337;BME280;47212;41.326;2.104;2023-11-21T19:29:44;101131.75;;;15.98;59.55
61337;BME280;47212;41.326;2.104;2023-11-21T19:34:52;101141.09;;;15.97;58.47
61337;BME280;47212;41.326;2.104;2023-11-21T19:40:23;101148.78;;;15.95;55.58
61337;BME280;47212;41.326;2.104;2023-11-21T19:45:29;101155.38;;;15.93;56.64
61337;BME280;47212;41.326;2.104;2023-11-21T19:50:33;101162.28;;;15.91;56.69
61337;BME280;47212;41.326;2.104;2023-11-21T19:55:39;101171.09;;;15.88;56.78
61337;BME280;47212;41.326;2.104;2023-11-21T20:00:44;101180.19;;;15.83;56.52
61337;BME280;47212;41.326;2.104;2023-11-21T20:05:49;101190.91;;;15.80;56.35
61337;BME280;47212;41.326;2.104;2023-11-21T20:10:57;101191.50;;;15.77;56.17
61337;BME280;47212;41.326;2.104;2023-11-21T20:16:03;101201.41;;;15.73;55.87
61337;BME280;47212;41.326;2.104;2023-11-21T20:21:06;101208.84;;;15.67;55.87
61337;BME280;47212;41.326;2.104;2023-11-21T20:26:22;101216.00;;;15.63;55.67
61337;BME280;47212;41.326;2.104;2023-11-21T20:31:30;101215.47;;;15.61;55.63
61337;BME280;47212;41.326;2.104;2023-11-21T20:36:42;101214.38;;;15.62;55.55
61337;BME280;47212;41.326;2.104;2023-11-21T20:41:54;101214.88;;;15.69;54.92
61337;BME280;47212;41.326;2.104;2023-11-21T20:47:05;101236.25;;;15.72;54.27
61337;BME280;47212;41.326;2.104;2023-11-21T20:52:14;101249.41;;;15.75;54.42
61337;BME280;47212;41.326;2.104;2023-11-21T20:57:19;101243.09;;;15.75;54.24
61337;BME280;47212;41.326;2.104;2023-11-21T21:02:29;101258.25;;;15.67;54.07
61337;BME280;47212;41.326;2.104;2023-11-21T21:07:37;101244.00;;;15.55;54.06
61337;BME280;47212;41.326;2.104;2023-11-21T21:12:45;101248.97;;;15.48;54.40
61337;BME280;47212;41.326;2.104;2023-11-21T21:18:07;101263.03;;;15.36;53.42
61337;BME280;47212;41.326;2.104;2023-11-21T21:23:14;101270.72;;;15.29;52.24
61337;BME280;47212;41.326;2.104;2023-11-21T21:28:19;101261.69;;;15.28;50.94
61337;BME280;47212;41.326;2.104;2023-11-21T21:33:26;101258.41;;;15.26;50.32
61337;BME280;47212;41.326;2.104;2023-11-21T21:38:33;101266.09;;;15.24;51.68
61337;BME280;47212;41.326;2.104;2023-11-21T21:43:37;101271.06;;;15.17;51.67
61337;BME280;47212;41.326;2.104;2023-11-21T21:48:43;101257.09;;;15.09;51.60
61337;BME280;47212;41.326;2.104;2023-11-21T21:54:17;101254.69;;;14.97;50.42
61337;BME280;47212;41.326;2.104;2023-11-21T21:59:23;101257.97;;;14.94;52.11
61337;BME280;47212;41.326;2.104;2023-11-21T22:04:32;101257.44;;;14.87;51.87
61337;BME280;47212;41.326;2.104;2023-11-21T22:09:38;101264.59;;;14.83;52.14
61337;BME280;47212;41.326;2.104;2023-11-21T22:14:42;101256.38;;;14.78;52.47
61337;BME280;47212;41.326;2.104;2023-11-21T22:19:48;101259.41;;;14.76;51.60
61337;BME280;47212;41.326;2.104;2023-11-21T22:24:57;101255.00;;;14.75;51.57
61337;BME280;47212;41.326;2.104;2023-11-21T22:30:11;101276.13;;;14.75;50.75
61337;BME280;47212;41.326;2.104;2023-11-21T22:35:16;101280.47;;;14.71;50.82
61337;BME280;47212;41.326;2.104;2023-11-21T22:40:24;101275.53;;;14.73;51.00
61337;BME280;47212;41.326;2.104;2023-11-21T22:45:28;101264.88;;;14.76;50.81
61337;BME280;47212;41.326;2.104;2023-11-21T22:50:31;101251.72;;;14.83;50.78
61337;BME280;47212;41.326;2.104;2023-11-21T22:55:41;101254.44;;;14.88;50.71
61337;BME280;47212;41.326;2.104;2023-11-21T23:00:48;101260.19;;;14.92;50.42
61337;BME280;47212;41.326;2.104;2023-11-21T23:05:55;101260.19;;;14.92;50.12
61337;BME280;47212;41.326;2.104;2023-11-21T23:11:27;101259.34;;;14.91;50.79
61337;BME280;47212;41.326;2.104;2023-11-21T23:16:36;101254.16;;;14.90;50.70
61337;BME280;47212;41.326;2.104;2023-11-21T23:21:49;101236.63;;;14.86;50.10
61337;BME280;47212;41.326;2.104;2023-11-21T23:26:55;101241.00;;;14.87;49.79
61337;BME280;47212;41.326;2.104;2023-11-21T23:32:08;101234.97;;;14.85;50.44
61337;BME280;47212;41.326;2.104;2023-11-21T23:37:14;101224.84;;;14.85;50.60
61337;BME280;47212;41.326;2.104;2023-11-21T23:42:25;101233.34;;;14.84;50.33
61337;BME280;47212;41.326;2.104;2023-11-21T23:47:41;101221.28;;;14.80;50.31
61337;BME280;47212;41.326;2.104;2023-11-21T23:52:46;101214.72;;;14.76;50.49
61337;BME280;47212;41.326;2.104;2023-11-21T23:57:49;101219.09;;;14.72;50.53
